Terminal Aerodrome Forecast
Issued by NWS

Current Version | Previous Version | Text Only | Print | Product List | Glossary On
Versions: 1 2 3 4 5 6 7 8 9 10 11 12 13 14 15 16 17 18 19 20 21 22 23 24 25 26 27 28
000
FTUS41 KOKX 021100 RRA
TAFHPN
TAF
KHPN 021150Z 0212/0312 VRB05KT P6SM SCT080
     FM021500 23007KT P6SM SCT060
     FM030000 VRB05KT P6SM SCT050 BKN150
      TEMPO 0303/0307 5SM -SHRA BKN050
     FM030700 31008KT P6SM SCT150
      AMD NOT SKED=

USA.gov is the U.S. government's official web portal to all federal, state and local government web resources and services.